createdAt,value
2023-03-07T00:01:35.190Z,8.33
2023-03-07T00:04:22.109Z,8.63
2023-03-07T00:07:09.030Z,8.50
2023-03-07T00:09:55.928Z,9.00
2023-03-07T00:12:43.073Z,9.17
2023-03-07T00:15:30.541Z,8.40
2023-03-07T00:18:17.500Z,8.60
2023-03-07T00:21:07.338Z,9.20
2023-03-07T00:23:54.299Z,8.97
2023-03-07T00:26:41.304Z,8.90
2023-03-07T00:29:28.521Z,8.70
2023-03-07T00:32:15.689Z,12.30
2023-03-07T00:35:02.706Z,9.23
2023-03-07T00:37:49.722Z,8.87
2023-03-07T00:40:36.655Z,8.30
2023-03-07T00:43:24.238Z,8.77
2023-03-07T00:46:11.370Z,8.67
2023-03-07T00:48:58.369Z,9.20
2023-03-07T00:51:45.379Z,8.97
2023-03-07T00:54:32.468Z,9.13
2023-03-07T00:57:19.570Z,9.03
2023-03-07T01:00:07.428Z,8.40
2023-03-07T01:02:56.370Z,10.17
2023-03-07T01:05:44.331Z,7.83
2023-03-07T01:08:31.732Z,9.97
2023-03-07T01:11:18.962Z,8.60
2023-03-07T01:14:06.733Z,8.00
2023-03-07T01:16:55.657Z,8.20
2023-03-07T01:19:42.721Z,8.40
2023-03-07T01:22:31.459Z,8.33
2023-03-07T01:25:18.768Z,7.93
2023-03-07T01:28:06.436Z,8.20
2023-03-07T01:31:00.142Z,8.73
2023-03-07T01:33:48.587Z,8.93
2023-03-07T01:36:36.896Z,9.10
2023-03-07T01:39:24.877Z,8.40
2023-03-07T01:42:16.650Z,8.63
2023-03-07T01:45:28.363Z,8.80
2023-03-07T01:48:15.493Z,9.07
2023-03-07T01:51:02.864Z,9.57
2023-03-07T01:53:52.044Z,8.73
2023-03-07T01:56:39.495Z,9.03
2023-03-07T01:59:33.146Z,10.07
2023-03-07T02:02:22.749Z,8.67
2023-03-07T02:05:15.933Z,8.97
2023-03-07T02:08:03.047Z,7.60
2023-03-07T02:10:52.535Z,8.70
2023-03-07T02:13:39.656Z,8.90
2023-03-07T02:16:26.808Z,8.70
2023-03-07T02:19:30.485Z,8.17
2023-03-07T02:22:19.237Z,8.23
2023-03-07T02:25:34.767Z,8.80
2023-03-07T02:28:22.319Z,8.50
2023-03-07T02:31:10.464Z,8.07
2023-03-07T02:33:59.730Z,8.27
2023-03-07T02:36:50.144Z,8.83
2023-03-07T02:39:43.128Z,8.53
2023-03-07T02:42:33.439Z,8.50
2023-03-07T02:45:25.826Z,8.47
2023-03-07T02:48:12.920Z,9.00
2023-03-07T02:50:59.931Z,8.30
2023-03-07T02:53:47.582Z,8.43
2023-03-07T02:56:34.735Z,8.43
2023-03-07T02:59:21.759Z,8.30
2023-03-07T03:02:08.925Z,7.60
2023-03-07T03:04:55.900Z,8.20
2023-03-07T03:07:43.730Z,8.10
2023-03-07T03:10:30.851Z,9.10
2023-03-07T03:13:20.231Z,8.30
2023-03-07T03:16:07.547Z,8.67
2023-03-07T03:18:54.531Z,8.17
2023-03-07T03:21:42.125Z,8.50
2023-03-07T03:24:29.124Z,8.70
2023-03-07T03:27:16.438Z,8.70
2023-03-07T03:30:10.152Z,8.33
2023-03-07T03:32:57.189Z,8.57
2023-03-07T03:35:44.297Z,8.53
2023-03-07T03:38:31.393Z,8.87
2023-03-07T03:41:18.502Z,8.90
2023-03-07T03:44:08.627Z,8.40
2023-03-07T03:46:56.129Z,8.87
2023-03-07T03:49:44.444Z,8.67
2023-03-07T03:52:31.517Z,8.13
2023-03-07T03:55:18.497Z,9.77
2023-03-07T03:58:05.510Z,8.67
2023-03-07T04:00:52.487Z,8.33
2023-03-07T04:03:47.532Z,8.83
2023-03-07T04:06:35.805Z,8.97
2023-03-07T04:09:22.954Z,10.73
2023-03-07T04:12:10.166Z,9.57
2023-03-07T04:14:57.174Z,9.10
2023-03-07T04:17:44.226Z,8.33
2023-03-07T04:20:31.224Z,9.70
2023-03-07T04:23:20.139Z,9.43
2023-03-07T04:26:08.764Z,8.93
2023-03-07T04:28:56.433Z,10.40
2023-03-07T04:31:48.673Z,9.33
2023-03-07T04:34:36.395Z,9.43
2023-03-07T04:37:23.945Z,8.60
2023-03-07T04:40:11.561Z,9.00
2023-03-07T04:42:58.514Z,9.13
2023-03-07T04:45:45.508Z,9.63
2023-03-07T04:48:32.553Z,8.57
2023-03-07T04:51:21.204Z,10.23
2023-03-07T04:54:09.650Z,10.20
2023-03-07T04:56:57.526Z,9.33
2023-03-07T04:59:44.633Z,9.07
2023-03-07T05:02:31.884Z,9.47
2023-03-07T05:05:22.082Z,9.33
2023-03-07T05:08:09.708Z,8.93
2023-03-07T05:10:57.188Z,9.23
2023-03-07T05:13:44.727Z,9.23
2023-03-07T05:16:33.581Z,8.23
2023-03-07T05:19:20.670Z,9.03
2023-03-07T05:22:09.727Z,8.37
2023-03-07T05:24:56.805Z,9.13
2023-03-07T05:27:43.939Z,8.20
2023-03-07T05:30:30.946Z,8.57
2023-03-07T05:33:17.985Z,8.57
2023-03-07T05:36:06.187Z,8.83
2023-03-07T05:38:56.240Z,9.90
2023-03-07T05:41:43.512Z,9.80
2023-03-07T05:44:33.111Z,9.13
2023-03-07T05:47:21.494Z,9.47
2023-03-07T05:50:09.639Z,9.03
2023-03-07T05:52:57.508Z,8.17
2023-03-07T05:55:47.365Z,8.43
2023-03-07T05:58:36.901Z,9.13
2023-03-07T06:01:23.938Z,8.50
2023-03-07T06:04:11.209Z,8.10
2023-03-07T06:06:59.462Z,7.80
2023-03-07T06:09:46.824Z,8.07
2023-03-07T06:12:34.820Z,8.83
2023-03-07T06:15:24.359Z,8.90
2023-03-07T06:18:15.560Z,8.90
2023-03-07T06:21:04.870Z,7.90
2023-03-07T06:23:56.254Z,8.57
2023-03-07T06:26:43.457Z,8.53
2023-03-07T06:29:30.701Z,8.63
2023-03-07T06:32:18.202Z,7.80
2023-03-07T06:35:05.853Z,8.80
2023-03-07T06:37:53.229Z,7.90
2023-03-07T06:40:41.015Z,8.77
2023-03-07T06:43:29.161Z,8.60
2023-03-07T06:46:18.120Z,8.40
2023-03-07T06:49:05.129Z,8.60
2023-03-07T06:51:52.305Z,8.23
2023-03-07T06:54:39.989Z,7.97
2023-03-07T06:57:27.605Z,7.53
2023-03-07T07:00:15.276Z,8.80
2023-03-07T07:03:02.679Z,8.60
2023-03-07T07:05:50.935Z,8.20
2023-03-07T07:08:38.309Z,8.57
2023-03-07T07:11:26.325Z,8.23
2023-03-07T07:14:13.758Z,8.43
2023-03-07T07:17:02.319Z,7.97
2023-03-07T07:19:49.496Z,10.37
2023-03-07T07:22:36.868Z,8.87
2023-03-07T07:25:23.891Z,7.37
2023-03-07T07:28:11.535Z,8.53
2023-03-07T07:30:59.721Z,9.23
2023-03-07T07:33:47.631Z,8.27
2023-03-07T07:36:36.186Z,9.10
2023-03-07T07:39:24.433Z,8.07
2023-03-07T07:42:12.532Z,8.37
2023-03-07T07:45:11.597Z,8.33
2023-03-07T07:47:58.881Z,9.27
2023-03-07T07:50:46.996Z,8.77
2023-03-07T07:53:34.155Z,8.87
2023-03-07T07:56:21.266Z,8.47
2023-03-07T07:59:08.586Z,8.63
2023-03-07T08:01:55.742Z,8.83
2023-03-07T08:04:42.940Z,9.17
2023-03-07T08:07:29.879Z,8.30
2023-03-07T08:10:17.876Z,8.10
2023-03-07T08:13:04.828Z,8.70
2023-03-07T08:15:51.839Z,8.00
2023-03-07T08:18:38.942Z,7.57
2023-03-07T08:21:26.198Z,8.30
2023-03-07T08:24:13.158Z,8.27
2023-03-07T08:27:00.164Z,8.67
2023-03-07T08:29:50.278Z,8.27
2023-03-07T08:32:37.242Z,7.87
2023-03-07T08:35:25.912Z,8.90
2023-03-07T08:38:12.880Z,9.63
2023-03-07T08:41:04.271Z,7.70
2023-03-07T08:43:51.637Z,7.33
2023-03-07T08:46:38.564Z,7.13
2023-03-07T08:49:25.522Z,8.40
2023-03-07T08:52:12.847Z,7.07
2023-03-07T08:54:59.774Z,8.47
2023-03-07T08:57:47.517Z,7.63
2023-03-07T09:00:34.441Z,7.23
2023-03-07T09:03:21.577Z,7.73
2023-03-07T09:06:08.505Z,8.53
2023-03-07T09:08:55.496Z,7.93
2023-03-07T09:11:42.476Z,7.63
2023-03-07T09:14:29.466Z,9.10
2023-03-07T09:17:16.824Z,9.40
2023-03-07T09:20:04.671Z,7.33
2023-03-07T09:22:53.593Z,8.30
2023-03-07T09:25:40.665Z,8.37
2023-03-07T09:28:27.801Z,7.43
2023-03-07T09:31:15.702Z,6.97
2023-03-07T09:34:02.658Z,8.33
2023-03-07T09:36:52.752Z,8.10
2023-03-07T09:39:39.814Z,7.13
2023-03-07T09:43:04.097Z,7.43
2023-03-07T09:46:15.640Z,6.63
2023-03-07T09:49:20.545Z,7.17
2023-03-07T09:52:14.516Z,7.53
2023-03-07T09:55:05.989Z,6.90
2023-03-07T09:57:58.579Z,7.70
2023-03-07T10:00:46.827Z,6.77
2023-03-07T10:03:37.469Z,7.50
2023-03-07T10:06:42.517Z,7.47
2023-03-07T10:09:29.513Z,7.03
2023-03-07T10:12:35.208Z,7.60
2023-03-07T10:15:57.798Z,7.47
2023-03-07T10:18:54.779Z,7.13
2023-03-07T10:21:48.101Z,6.97
2023-03-07T10:25:00.553Z,7.07
2023-03-07T10:27:50.545Z,6.23
2023-03-07T10:30:37.529Z,6.33
2023-03-07T10:33:25.577Z,6.93
2023-03-07T10:36:19.124Z,6.97
2023-03-07T10:39:24.676Z,6.83
2023-03-07T10:42:13.806Z,6.50
2023-03-07T10:45:01.334Z,6.63
2023-03-07T10:47:48.285Z,6.40
2023-03-07T10:50:53.617Z,5.97
2023-03-07T10:53:40.858Z,5.60
2023-03-07T10:56:27.792Z,5.47
2023-03-07T10:59:24.924Z,5.23
2023-03-07T11:02:32.209Z,5.43
2023-03-07T11:05:21.848Z,5.67
2023-03-07T11:08:33.373Z,5.17
2023-03-07T11:11:32.354Z,4.93
2023-03-07T11:14:21.824Z,4.80
2023-03-07T11:17:20.233Z,5.80
2023-03-07T11:20:30.736Z,5.73
2023-03-07T11:23:23.361Z,5.20
2023-03-07T11:26:16.342Z,4.90
2023-03-07T11:29:11.977Z,4.53
2023-03-07T11:32:31.477Z,4.40
2023-03-07T11:35:40.234Z,5.00
2023-03-07T11:38:46.145Z,5.37
2023-03-07T11:41:38.399Z,6.03
2023-03-07T11:44:52.139Z,5.57
2023-03-07T11:47:55.393Z,6.20
2023-03-07T11:50:49.105Z,5.57
2023-03-07T11:53:57.619Z,5.63
2023-03-07T11:56:49.930Z,6.57
2023-03-07T11:59:44.596Z,5.20
2023-03-07T12:03:09.254Z,5.60
2023-03-07T12:06:05.691Z,5.70
2023-03-07T12:09:05.573Z,5.20
2023-03-07T12:12:19.709Z,6.27
2023-03-07T12:15:44.904Z,6.30
2023-03-07T12:19:01.178Z,5.40
2023-03-07T12:22:12.157Z,5.57
2023-03-07T12:25:07.975Z,6.23
2023-03-07T12:28:10.026Z,6.30
2023-03-07T12:31:16.908Z,5.60
2023-03-07T12:34:09.999Z,6.97
2023-03-07T12:37:08.088Z,6.00
2023-03-07T12:40:09.308Z,6.37
2023-03-07T12:43:05.510Z,6.13
2023-03-07T12:46:03.938Z,6.13
2023-03-07T12:49:22.324Z,5.93
2023-03-07T12:52:39.470Z,5.90
2023-03-07T12:55:39.116Z,5.77
2023-03-07T12:58:44.315Z,6.53
2023-03-07T13:01:35.119Z,6.50
2023-03-07T13:04:33.690Z,6.20
2023-03-07T13:07:25.379Z,9.17
2023-03-07T13:10:17.915Z,6.07
2023-03-07T13:13:43.267Z,6.00
2023-03-07T13:16:47.599Z,6.23
2023-03-07T13:19:34.760Z,5.83
2023-03-07T13:22:21.585Z,5.80
2023-03-07T13:25:24.846Z,5.50
2023-03-07T13:28:43.003Z,5.80
2023-03-07T13:31:38.479Z,5.73
2023-03-07T13:34:46.336Z,6.57
2023-03-07T13:37:49.894Z,6.07
2023-03-07T13:40:39.552Z,6.33
2023-03-07T13:43:28.328Z,5.87
2023-03-07T13:46:44.855Z,5.53
2023-03-07T13:49:40.759Z,5.37
2023-03-07T13:52:35.620Z,5.17
2023-03-07T13:55:24.987Z,5.33
2023-03-07T13:58:20.838Z,5.43
2023-03-07T14:01:18.469Z,5.40
2023-03-07T14:04:36.791Z,5.47
2023-03-07T14:07:36.822Z,6.23
2023-03-07T14:10:27.963Z,7.80
2023-03-07T14:13:25.832Z,5.20
2023-03-07T14:16:29.348Z,6.20
2023-03-07T14:19:34.651Z,5.00
2023-03-07T14:22:27.462Z,5.27
2023-03-07T14:25:27.398Z,4.80
2023-03-07T14:28:21.957Z,5.10
2023-03-07T14:31:22.596Z,5.37
2023-03-07T14:34:36.337Z,5.00
2023-03-07T14:37:28.772Z,5.47
2023-03-07T14:40:49.824Z,5.40
2023-03-07T14:43:56.907Z,5.30
2023-03-07T14:47:22.588Z,5.30
2023-03-07T14:50:17.380Z,4.83
2023-03-07T14:53:11.986Z,5.67
2023-03-07T14:56:00.341Z,6.07
2023-03-07T14:59:02.148Z,5.63
2023-03-07T15:01:49.437Z,6.43
2023-03-07T15:04:36.975Z,6.00
2023-03-07T15:07:24.238Z,5.73
2023-03-07T15:10:20.752Z,6.30
2023-03-07T15:13:17.097Z,7.83
2023-03-07T15:16:10.126Z,6.73
2023-03-07T15:19:32.802Z,6.23
2023-03-07T15:22:28.959Z,6.47
2023-03-07T15:25:25.911Z,6.10
2023-03-07T15:28:21.363Z,6.53
2023-03-07T15:31:09.165Z,6.30
2023-03-07T15:34:11.035Z,5.80
2023-03-07T15:37:25.068Z,6.47
2023-03-07T15:40:11.896Z,6.60
2023-03-07T15:43:04.406Z,5.83
2023-03-07T15:46:08.263Z,6.13
2023-03-07T15:48:55.371Z,5.43
2023-03-07T15:51:43.472Z,5.37
2023-03-07T15:54:39.438Z,5.63
2023-03-07T15:57:34.098Z,5.63
2023-03-07T16:00:36.597Z,5.90
2023-03-07T16:03:27.433Z,5.77
2023-03-07T16:06:40.933Z,6.57
2023-03-07T16:09:27.940Z,6.00
2023-03-07T16:12:17.740Z,4.97
2023-03-07T16:15:05.244Z,6.53
2023-03-07T16:17:55.091Z,5.33
2023-03-07T16:20:42.097Z,5.73
2023-03-07T16:23:31.216Z,5.63
2023-03-07T16:26:21.691Z,5.80
2023-03-07T16:29:17.873Z,5.77
2023-03-07T16:32:29.687Z,6.40
2023-03-07T16:35:19.925Z,5.33
2023-03-07T16:38:07.237Z,6.00
2023-03-07T16:40:54.276Z,5.80
2023-03-07T16:43:41.378Z,5.80
2023-03-07T16:46:28.896Z,5.67
2023-03-07T16:49:18.419Z,7.27
2023-03-07T16:52:06.808Z,4.90
2023-03-07T16:54:53.966Z,5.30
2023-03-07T16:57:47.126Z,6.00
2023-03-07T17:00:34.186Z,5.53
2023-03-07T17:03:21.700Z,6.37
2023-03-07T17:06:14.480Z,6.37
2023-03-07T17:09:01.462Z,6.53
2023-03-07T17:11:51.700Z,6.60
2023-03-07T17:14:39.401Z,6.20
2023-03-07T17:17:33.338Z,6.67
2023-03-07T17:20:20.482Z,7.07
2023-03-07T17:23:08.191Z,5.80
2023-03-07T17:25:55.166Z,5.83
2023-03-07T17:28:42.233Z,6.77
2023-03-07T17:31:29.265Z,6.57
2023-03-07T17:34:26.475Z,8.17
2023-03-07T17:37:13.994Z,9.10
2023-03-07T17:40:02.026Z,10.60
2023-03-07T17:42:54.748Z,14.30
2023-03-07T17:45:41.743Z,13.43
2023-03-07T17:48:28.724Z,18.70
2023-03-07T17:51:15.684Z,17.27
2023-03-07T17:54:02.834Z,18.03
2023-03-07T17:56:50.038Z,18.23
2023-03-07T17:59:37.300Z,13.27
2023-03-07T18:02:24.597Z,12.40
2023-03-07T18:05:13.130Z,17.80
2023-03-07T18:08:00.166Z,17.90
2023-03-07T18:10:47.125Z,33.63
2023-03-07T18:13:34.189Z,45.33
2023-03-07T18:16:21.314Z,46.70
2023-03-07T18:19:14.197Z,20.57
2023-03-07T18:22:04.639Z,13.30
2023-03-07T18:24:54.400Z,7.23
2023-03-07T18:27:41.732Z,10.10
2023-03-07T18:30:29.219Z,8.53
2023-03-07T18:33:16.217Z,11.33
2023-03-07T18:36:05.157Z,10.57
2023-03-07T18:38:52.629Z,6.97
2023-03-07T18:41:39.679Z,10.50
2023-03-07T18:44:26.640Z,13.73
2023-03-07T18:47:13.577Z,6.63
2023-03-07T18:50:00.553Z,6.90
2023-03-07T18:52:47.547Z,9.33
2023-03-07T18:55:38.071Z,7.13
2023-03-07T18:58:26.244Z,7.83
2023-03-07T19:01:25.683Z,6.40
2023-03-07T19:04:12.696Z,6.27
2023-03-07T19:07:00.600Z,7.03
2023-03-07T19:09:53.116Z,7.60
2023-03-07T19:12:40.071Z,6.07
2023-03-07T19:15:27.077Z,6.10
2023-03-07T19:18:14.060Z,6.23
2023-03-07T19:21:06.769Z,5.53
2023-03-07T19:23:55.881Z,6.10
2023-03-07T19:26:43.297Z,6.93
2023-03-07T19:29:30.230Z,7.13
2023-03-07T19:32:18.729Z,6.10
2023-03-07T19:35:06.315Z,9.27
2023-03-07T19:37:53.219Z,7.50
2023-03-07T19:40:40.234Z,7.30
2023-03-07T19:43:27.792Z,9.37
2023-03-07T19:46:16.428Z,8.97
2023-03-07T19:49:03.467Z,16.43
2023-03-07T19:51:50.389Z,9.17
2023-03-07T19:54:37.464Z,6.00
2023-03-07T19:57:24.592Z,4.60
2023-03-07T20:00:12.399Z,4.70
2023-03-07T20:03:00.163Z,4.87
2023-03-07T20:05:48.804Z,4.33
2023-03-07T20:08:36.034Z,3.93
2023-03-07T20:11:28.435Z,4.53
2023-03-07T20:14:15.363Z,3.90
2023-03-07T20:17:02.348Z,6.20
2023-03-07T20:19:51.067Z,4.20
2023-03-07T20:22:38.766Z,3.87
2023-03-07T20:25:29.798Z,4.43
2023-03-07T20:28:16.791Z,3.70
2023-03-07T20:31:08.789Z,4.03
2023-03-07T20:33:58.463Z,3.83
2023-03-07T20:36:45.538Z,4.43
2023-03-07T20:39:32.462Z,4.00
2023-03-07T20:42:19.445Z,5.67
2023-03-07T20:45:06.933Z,4.00
2023-03-07T20:47:53.870Z,4.00
2023-03-07T20:50:40.817Z,4.00
2023-03-07T20:53:27.754Z,4.20
2023-03-07T20:56:15.223Z,4.10
2023-03-07T20:59:02.576Z,4.30
2023-03-07T21:01:49.568Z,4.50
2023-03-07T21:04:36.561Z,4.73
2023-03-07T21:07:23.774Z,4.17
2023-03-07T21:10:12.622Z,4.17
2023-03-07T21:12:59.600Z,4.67
2023-03-07T21:15:52.933Z,4.60
2023-03-07T21:18:40.219Z,4.30
2023-03-07T21:21:29.077Z,3.87
2023-03-07T21:24:16.234Z,3.93
2023-03-07T21:27:03.273Z,4.60
2023-03-07T21:29:50.197Z,4.03
2023-03-07T21:32:37.177Z,4.53
2023-03-07T21:35:24.532Z,8.27
2023-03-07T21:38:11.537Z,12.33
2023-03-07T21:40:58.492Z,7.10
2023-03-07T21:43:45.711Z,5.17
2023-03-07T21:46:33.069Z,4.70
2023-03-07T21:49:20.085Z,4.47
2023-03-07T21:52:07.180Z,5.73
2023-03-07T21:54:54.159Z,4.33
2023-03-07T21:57:41.093Z,5.57
2023-03-07T22:00:30.001Z,5.00
2023-03-07T22:03:17.988Z,5.07
2023-03-07T22:06:10.738Z,4.63
2023-03-07T22:08:59.719Z,4.80
2023-03-07T22:11:47.399Z,5.10
2023-03-07T22:14:34.322Z,4.67
2023-03-07T22:17:21.269Z,5.00
2023-03-07T22:20:10.904Z,4.37
2023-03-07T22:22:57.859Z,4.40
2023-03-07T22:25:44.896Z,4.73
2023-03-07T22:28:32.146Z,5.10
2023-03-07T22:31:19.233Z,4.63
2023-03-07T22:34:06.305Z,4.30
2023-03-07T22:36:56.206Z,4.20
2023-03-07T22:39:43.149Z,4.50
2023-03-07T22:42:30.241Z,4.50
2023-03-07T22:45:17.270Z,4.63
2023-03-07T22:48:04.387Z,4.70
2023-03-07T22:50:51.471Z,4.03
2023-03-07T22:53:38.522Z,4.63
2023-03-07T22:56:28.142Z,5.20
2023-03-07T22:59:15.286Z,5.50
2023-03-07T23:02:02.259Z,5.07
2023-03-07T23:04:52.494Z,4.87
2023-03-07T23:07:39.944Z,5.90
2023-03-07T23:10:28.575Z,5.73
2023-03-07T23:13:17.115Z,4.83
2023-03-07T23:16:08.541Z,5.17
2023-03-07T23:18:57.527Z,5.20
2023-03-07T23:21:44.521Z,5.23
2023-03-07T23:24:31.450Z,5.23
2023-03-07T23:27:18.381Z,5.73
2023-03-07T23:30:06.441Z,6.07
2023-03-07T23:32:55.056Z,6.10
2023-03-07T23:35:42.111Z,5.17
2023-03-07T23:38:29.119Z,5.33
2023-03-07T23:41:16.431Z,6.10
2023-03-07T23:44:03.546Z,6.10
2023-03-07T23:46:50.747Z,6.17
2023-03-07T23:49:37.715Z,6.93
2023-03-07T23:52:24.689Z,5.50
2023-03-07T23:55:11.849Z,6.17
2023-03-07T23:57:59.295Z,7.70
